sensor_id;sensor_type;location;lat;lon;timestamp;pressure;altitude;pressure_sealevel;temperature;humidity
43757;BME280;73222;41.866;12.462;2024-01-30T00:02:21;102971.59;;;6.18;100.00
43757;BME280;73222;41.866;12.462;2024-01-30T00:04:47;102972.88;;;6.11;100.00
43757;BME280;73222;41.866;12.462;2024-01-30T00:07:12;102964.88;;;6.07;100.00
43757;BME280;73222;41.866;12.462;2024-01-30T00:09:38;102964.63;;;6.02;100.00
43757;BME280;73222;41.866;12.462;2024-01-30T00:12:05;102962.25;;;6.05;100.00
43757;BME280;73222;41.866;12.462;2024-01-30T00:14:31;102963.16;;;5.92;100.00
43757;BME280;73222;41.866;12.462;2024-01-30T00:16:56;102963.44;;;5.97;100.00
43757;BME280;73222;41.866;12.462;2024-01-30T00:19:22;102971.34;;;5.86;100.00
43757;BME280;73222;41.866;12.462;2024-01-30T00:21:47;102955.94;;;5.86;100.00
43757;BME280;73222;41.866;12.462;2024-01-30T00:24:13;102962.66;;;5.84;100.00
43757;BME280;73222;41.866;12.462;2024-01-30T00:26:40;102961.94;;;5.72;100.00
43757;BME280;73222;41.866;12.462;2024-01-30T00:29:05;102968.03;;;5.74;100.00
43757;BME280;73222;41.866;12.462;2024-01-30T00:31:31;102970.06;;;5.64;100.00
43757;BME280;73222;41.866;12.462;2024-01-30T00:33:56;102963.72;;;5.59;100.00
43757;BME280;73222;41.866;12.462;2024-01-30T00:36:21;102959.16;;;5.55;100.00
43757;BME280;73222;41.866;12.462;2024-01-30T00:38:47;102960.59;;;5.50;100.00
43757;BME280;73222;41.866;12.462;2024-01-30T00:41:12;102957.03;;;5.48;100.00
43757;BME280;73222;41.866;12.462;2024-01-30T00:43:38;102966.31;;;5.46;100.00
43757;BME280;73222;41.866;12.462;2024-01-30T00:46:03;102972.47;;;5.48;100.00
43757;BME280;73222;41.866;12.462;2024-01-30T00:48:28;102973.66;;;5.40;100.00
43757;BME280;73222;41.866;12.462;2024-01-30T00:50:54;102968.53;;;5.40;100.00
43757;BME280;73222;41.866;12.462;2024-01-30T00:53:19;102969.00;;;5.34;100.00
43757;BME280;73222;41.866;12.462;2024-01-30T00:55:45;102972.66;;;5.38;100.00
43757;BME280;73222;41.866;12.462;2024-01-30T00:58:10;102970.59;;;5.32;100.00
43757;BME280;73222;41.866;12.462;2024-01-30T01:00:35;102976.22;;;5.26;100.00
43757;BME280;73222;41.866;12.462;2024-01-30T01:03:01;102980.28;;;5.22;100.00
43757;BME280;73222;41.866;12.462;2024-01-30T01:05:27;102975.63;;;5.17;100.00
43757;BME280;73222;41.866;12.462;2024-01-30T01:07:52;102976.09;;;5.11;100.00
43757;BME280;73222;41.866;12.462;2024-01-30T01:10:18;102978.78;;;5.13;100.00
43757;BME280;73222;41.866;12.462;2024-01-30T01:12:44;102985.78;;;5.02;100.00
43757;BME280;73222;41.866;12.462;2024-01-30T01:15:10;102981.38;;;4.99;100.00
43757;BME280;73222;41.866;12.462;2024-01-30T01:17:36;102981.03;;;4.94;100.00
43757;BME280;73222;41.866;12.462;2024-01-30T01:20:02;102982.53;;;4.91;100.00
43757;BME280;73222;41.866;12.462;2024-01-30T01:22:28;102983.59;;;4.94;100.00
43757;BME280;73222;41.866;12.462;2024-01-30T01:24:54;102981.66;;;4.90;100.00
43757;BME280;73222;41.866;12.462;2024-01-30T01:27:19;102973.66;;;4.86;100.00
43757;BME280;73222;41.866;12.462;2024-01-30T01:29:45;102975.59;;;4.90;100.00
43757;BME280;73222;41.866;12.462;2024-01-30T01:32:10;102975.22;;;4.84;100.00
43757;BME280;73222;41.866;12.462;2024-01-30T01:34:36;102980.56;;;4.87;100.00
43757;BME280;73222;41.866;12.462;2024-01-30T01:37:01;102975.81;;;4.79;100.00
43757;BME280;73222;41.866;12.462;2024-01-30T01:39:27;102974.22;;;4.81;100.00
43757;BME280;73222;41.866;12.462;2024-01-30T01:41:52;102967.69;;;4.73;100.00
43757;BME280;73222;41.866;12.462;2024-01-30T01:44:18;102965.91;;;4.72;100.00
43757;BME280;73222;41.866;12.462;2024-01-30T01:46:44;102976.06;;;4.71;100.00
43757;BME280;73222;41.866;12.462;2024-01-30T01:49:09;102975.31;;;4.72;100.00
43757;BME280;73222;41.866;12.462;2024-01-30T01:51:36;102965.31;;;4.63;100.00
43757;BME280;73222;41.866;12.462;2024-01-30T01:54:03;102966.41;;;4.66;100.00
43757;BME280;73222;41.866;12.462;2024-01-30T01:56:29;102962.63;;;4.61;100.00
43757;BME280;73222;41.866;12.462;2024-01-30T01:58:59;102964.91;;;4.57;100.00
43757;BME280;73222;41.866;12.462;2024-01-30T02:01:25;102958.69;;;4.53;100.00
43757;BME280;73222;41.866;12.462;2024-01-30T02:03:51;102961.84;;;4.49;100.00
43757;BME280;73222;41.866;12.462;2024-01-30T02:06:17;102955.81;;;4.48;100.00
43757;BME280;73222;41.866;12.462;2024-01-30T02:08:42;102951.59;;;4.49;100.00
43757;BME280;73222;41.866;12.462;2024-01-30T02:11:08;102953.84;;;4.44;100.00
43757;BME280;73222;41.866;12.462;2024-01-30T02:13:35;102945.91;;;4.41;100.00
43757;BME280;73222;41.866;12.462;2024-01-30T02:16:01;102950.50;;;4.45;100.00
43757;BME280;73222;41.866;12.462;2024-01-30T02:18:26;102952.63;;;4.39;100.00
43757;BME280;73222;41.866;12.462;2024-01-30T02:20:56;102941.38;;;4.37;100.00
43757;BME280;73222;41.866;12.462;2024-01-30T02:23:24;102944.31;;;4.30;100.00
43757;BME280;73222;41.866;12.462;2024-01-30T02:25:50;102942.75;;;4.32;100.00
43757;BME280;73222;41.866;12.462;2024-01-30T02:28:18;102936.94;;;4.34;100.00
43757;BME280;73222;41.866;12.462;2024-01-30T02:30:44;102935.28;;;4.35;100.00
43757;BME280;73222;41.866;12.462;2024-01-30T02:33:10;102934.38;;;4.34;100.00
43757;BME280;73222;41.866;12.462;2024-01-30T02:35:35;102932.97;;;4.26;100.00
43757;BME280;73222;41.866;12.462;2024-01-30T02:38:01;102935.22;;;4.21;100.00
43757;BME280;73222;41.866;12.462;2024-01-30T02:40:26;102929.88;;;4.18;100.00
43757;BME280;73222;41.866;12.462;2024-01-30T02:42:52;102928.53;;;4.23;100.00
43757;BME280;73222;41.866;12.462;2024-01-30T02:45:17;102928.53;;;4.23;100.00
43757;BME280;73222;41.866;12.462;2024-01-30T02:47:43;102930.97;;;4.22;100.00
43757;BME280;73222;41.866;12.462;2024-01-30T02:50:08;102928.09;;;4.17;100.00
43757;BME280;73222;41.866;12.462;2024-01-30T02:52:34;102933.66;;;4.23;100.00
43757;BME280;73222;41.866;12.462;2024-01-30T02:55:00;102936.38;;;4.13;100.00
43757;BME280;73222;41.866;12.462;2024-01-30T02:57:25;102928.31;;;4.20;100.00
43757;BME280;73222;41.866;12.462;2024-01-30T02:59:51;102924.75;;;4.18;100.00
43757;BME280;73222;41.866;12.462;2024-01-30T03:02:17;102922.78;;;4.14;100.00
43757;BME280;73222;41.866;12.462;2024-01-30T03:04:42;102927.47;;;4.08;100.00
43757;BME280;73222;41.866;12.462;2024-01-30T03:07:08;102925.03;;;4.09;100.00
43757;BME280;73222;41.866;12.462;2024-01-30T03:09:33;102922.16;;;4.05;100.00
43757;BME280;73222;41.866;12.462;2024-01-30T03:11:58;102920.59;;;4.07;100.00
43757;BME280;73222;41.866;12.462;2024-01-30T03:14:24;102917.59;;;4.01;100.00
43757;BME280;73222;41.866;12.462;2024-01-30T03:16:49;102929.31;;;3.97;100.00
43757;BME280;73222;41.866;12.462;2024-01-30T03:19:15;102924.66;;;3.91;100.00
43757;BME280;73222;41.866;12.462;2024-01-30T03:21:40;102924.09;;;3.95;100.00
43757;BME280;73222;41.866;12.462;2024-01-30T03:24:05;102921.91;;;3.88;100.00
43757;BME280;73222;41.866;12.462;2024-01-30T03:26:31;102924.66;;;3.91;100.00
43757;BME280;73222;41.866;12.462;2024-01-30T03:28:56;102929.59;;;3.88;100.00
43757;BME280;73222;41.866;12.462;2024-01-30T03:31:22;102929.16;;;3.82;100.00
43757;BME280;73222;41.866;12.462;2024-01-30T03:33:47;102926.47;;;3.80;100.00
43757;BME280;73222;41.866;12.462;2024-01-30T03:36:13;102925.38;;;3.77;100.00
43757;BME280;73222;41.866;12.462;2024-01-30T03:38:38;102927.94;;;3.77;100.00
43757;BME280;73222;41.866;12.462;2024-01-30T03:41:07;102924.97;;;3.70;100.00
43757;BME280;73222;41.866;12.462;2024-01-30T03:43:33;102927.53;;;3.70;100.00
43757;BME280;73222;41.866;12.462;2024-01-30T03:45:59;102924.44;;;3.63;100.00
43757;BME280;73222;41.866;12.462;2024-01-30T03:48:24;102923.00;;;3.54;100.00
43757;BME280;73222;41.866;12.462;2024-01-30T03:50:52;102923.00;;;3.54;100.00
43757;BME280;73222;41.866;12.462;2024-01-30T03:53:17;102931.47;;;3.53;100.00
43757;BME280;73222;41.866;12.462;2024-01-30T03:55:43;102935.25;;;3.59;100.00
43757;BME280;73222;41.866;12.462;2024-01-30T03:58:08;102928.59;;;3.49;100.00
43757;BME280;73222;41.866;12.462;2024-01-30T04:00:33;102931.28;;;3.50;100.00
43757;BME280;73222;41.866;12.462;2024-01-30T04:02:59;102927.13;;;3.52;100.00
43757;BME280;73222;41.866;12.462;2024-01-30T04:05:24;102934.59;;;3.49;100.00
43757;BME280;73222;41.866;12.462;2024-01-30T04:07:49;102933.47;;;3.46;100.00
43757;BME280;73222;41.866;12.462;2024-01-30T04:10:15;102932.72;;;3.47;100.00
43757;BME280;73222;41.866;12.462;2024-01-30T04:12:40;102931.69;;;3.44;100.00
43757;BME280;73222;41.866;12.462;2024-01-30T04:15:05;102937.06;;;3.48;100.00
43757;BME280;73222;41.866;12.462;2024-01-30T04:17:31;102942.63;;;3.42;100.00
43757;BME280;73222;41.866;12.462;2024-01-30T04:19:57;102945.75;;;3.38;100.00
43757;BME280;73222;41.866;12.462;2024-01-30T04:22:23;102947.75;;;3.30;100.00
43757;BME280;73222;41.866;12.462;2024-01-30T04:24:48;102941.28;;;3.35;100.00
43757;BME280;73222;41.866;12.462;2024-01-30T04:27:13;102939.53;;;3.34;100.00
43757;BME280;73222;41.866;12.462;2024-01-30T04:29:39;102937.31;;;3.27;100.00
43757;BME280;73222;41.866;12.462;2024-01-30T04:32:04;102940.44;;;3.23;100.00
43757;BME280;73222;41.866;12.462;2024-01-30T04:34:30;102942.75;;;3.20;100.00
43757;BME280;73222;41.866;12.462;2024-01-30T04:36:55;102946.88;;;3.18;100.00
43757;BME280;73222;41.866;12.462;2024-01-30T04:39:21;102952.00;;;3.18;100.00
43757;BME280;73222;41.866;12.462;2024-01-30T04:41:46;102949.66;;;3.21;100.00
43757;BME280;73222;41.866;12.462;2024-01-30T04:44:11;102947.44;;;3.13;100.00
43757;BME280;73222;41.866;12.462;2024-01-30T04:46:37;102942.69;;;3.06;100.00
43757;BME280;73222;41.866;12.462;2024-01-30T04:49:02;102954.25;;;3.01;100.00
43757;BME280;73222;41.866;12.462;2024-01-30T04:51:28;102950.69;;;2.99;100.00
43757;BME280;73222;41.866;12.462;2024-01-30T04:53:55;102954.56;;;3.06;100.00
43757;BME280;73222;41.866;12.462;2024-01-30T04:56:20;102946.78;;;3.04;100.00
43757;BME280;73222;41.866;12.462;2024-01-30T04:58:45;102948.47;;;3.04;100.00
43757;BME280;73222;41.866;12.462;2024-01-30T05:01:15;102960.47;;;2.93;100.00
43757;BME280;73222;41.866;12.462;2024-01-30T05:03:41;102954.13;;;2.87;100.00
43757;BME280;73222;41.866;12.462;2024-01-30T05:06:06;102959.00;;;2.84;100.00
43757;BME280;73222;41.866;12.462;2024-01-30T05:08:31;102956.22;;;2.81;100.00
43757;BME280;73222;41.866;12.462;2024-01-30T05:11:01;102956.47;;;2.84;100.00
43757;BME280;73222;41.866;12.462;2024-01-30T05:13:31;102971.81;;;2.84;100.00
43757;BME280;73222;41.866;12.462;2024-01-30T05:15:57;102968.00;;;2.79;100.00
43757;BME280;73222;41.866;12.462;2024-01-30T05:18:22;102966.22;;;2.78;100.00
43757;BME280;73222;41.866;12.462;2024-01-30T05:20:49;102964.91;;;2.83;100.00
43757;BME280;73222;41.866;12.462;2024-01-30T05:23:15;102962.91;;;2.79;100.00
43757;BME280;73222;41.866;12.462;2024-01-30T05:25:40;102961.91;;;2.77;100.00
43757;BME280;73222;41.866;12.462;2024-01-30T05:28:05;102975.13;;;2.71;100.00
43757;BME280;73222;41.866;12.462;2024-01-30T05:30:31;102967.34;;;2.70;100.00
43757;BME280;73222;41.866;12.462;2024-01-30T05:32:56;102966.88;;;2.75;100.00
43757;BME280;73222;41.866;12.462;2024-01-30T05:35:22;102964.25;;;2.74;100.00
43757;BME280;73222;41.866;12.462;2024-01-30T05:37:50;102947.53;;;2.67;100.00
43757;BME280;73222;41.866;12.462;2024-01-30T05:40:16;102962.00;;;2.67;100.00
43757;BME280;73222;41.866;12.462;2024-01-30T05:42:42;102969.22;;;2.60;100.00
43757;BME280;73222;41.866;12.462;2024-01-30T05:45:07;102968.22;;;2.58;100.00
43757;BME280;73222;41.866;12.462;2024-01-30T05:47:34;102964.97;;;2.61;100.00
43757;BME280;73222;41.866;12.462;2024-01-30T05:49:59;102968.22;;;2.58;100.00
43757;BME280;73222;41.866;12.462;2024-01-30T05:52:24;102964.56;;;2.67;100.00
43757;BME280;73222;41.866;12.462;2024-01-30T05:54:50;102971.31;;;2.66;100.00
43757;BME280;73222;41.866;12.462;2024-01-30T05:57:16;102971.97;;;2.64;100.00
43757;BME280;73222;41.866;12.462;2024-01-30T05:59:41;102977.00;;;2.62;100.00
43757;BME280;73222;41.866;12.462;2024-01-30T06:02:07;102967.53;;;2.73;100.00
43757;BME280;73222;41.866;12.462;2024-01-30T06:04:32;102968.91;;;2.68;100.00
43757;BME280;73222;41.866;12.462;2024-01-30T06:06:58;102970.22;;;2.63;100.00
43757;BME280;73222;41.866;12.462;2024-01-30T06:09:26;102974.66;;;2.65;100.00
43757;BME280;73222;41.866;12.462;2024-01-30T06:11:52;102974.31;;;2.60;100.00
43757;BME280;73222;41.866;12.462;2024-01-30T06:14:17;102970.47;;;2.66;100.00
43757;BME280;73222;41.866;12.462;2024-01-30T06:16:45;102975.78;;;2.69;100.00
43757;BME280;73222;41.866;12.462;2024-01-30T06:19:11;102972.31;;;2.68;100.00
43757;BME280;73222;41.866;12.462;2024-01-30T06:21:36;102976.47;;;2.78;100.00
43757;BME280;73222;41.866;12.462;2024-01-30T06:24:03;102984.69;;;2.74;100.00
43757;BME280;73222;41.866;12.462;2024-01-30T06:26:30;102974.47;;;2.74;100.00
43757;BME280;73222;41.866;12.462;2024-01-30T06:28:55;102967.78;;;2.76;100.00
43757;BME280;73222;41.866;12.462;2024-01-30T06:31:21;102978.91;;;2.77;100.00
43757;BME280;73222;41.866;12.462;2024-01-30T06:33:47;102977.59;;;2.82;100.00
43757;BME280;73222;41.866;12.462;2024-01-30T06:36:13;102980.03;;;2.80;100.00
43757;BME280;73222;41.866;12.462;2024-01-30T06:38:38;102980.91;;;2.81;100.00
43757;BME280;73222;41.866;12.462;2024-01-30T06:41:04;102974.91;;;2.92;100.00
43757;BME280;73222;41.866;12.462;2024-01-30T06:43:29;102973.38;;;2.94;100.00
43757;BME280;73222;41.866;12.462;2024-01-30T06:45:55;102984.69;;;2.98;100.00
43757;BME280;73222;41.866;12.462;2024-01-30T06:48:20;102992.50;;;2.99;100.00
43757;BME280;73222;41.866;12.462;2024-01-30T06:50:45;102988.03;;;3.44;100.00
43757;BME280;73222;41.866;12.462;2024-01-30T06:53:11;102982.19;;;4.34;100.00
43757;BME280;73222;41.866;12.462;2024-01-30T06:55:36;102982.63;;;4.92;100.00
43757;BME280;73222;41.866;12.462;2024-01-30T06:58:02;102976.00;;;5.50;100.00
43757;BME280;73222;41.866;12.462;2024-01-30T07:00:28;102971.91;;;5.96;100.00
43757;BME280;73222;41.866;12.462;2024-01-30T07:02:53;102973.69;;;6.54;100.00
43757;BME280;73222;41.866;12.462;2024-01-30T07:05:19;102968.81;;;7.20;100.00
43757;BME280;73222;41.866;12.462;2024-01-30T07:07:44;102974.47;;;7.29;100.00
43757;BME280;73222;41.866;12.462;2024-01-30T07:10:09;102971.50;;;7.70;100.00
43757;BME280;73222;41.866;12.462;2024-01-30T07:12:35;102980.66;;;8.48;100.00
43757;BME280;73222;41.866;12.462;2024-01-30T07:15:03;102978.59;;;8.57;100.00
43757;BME280;73222;41.866;12.462;2024-01-30T07:17:29;102981.38;;;9.15;100.00
43757;BME280;73222;41.866;12.462;2024-01-30T07:19:54;102981.75;;;9.60;100.00
43757;BME280;73222;41.866;12.462;2024-01-30T07:22:20;102988.53;;;10.16;100.00
43757;BME280;73222;41.866;12.462;2024-01-30T07:24:45;102977.75;;;10.26;100.00
43757;BME280;73222;41.866;12.462;2024-01-30T07:27:14;102982.13;;;10.68;100.00
43757;BME280;73222;41.866;12.462;2024-01-30T07:29:39;102984.19;;;10.77;97.82
43757;BME280;73222;41.866;12.462;2024-01-30T07:32:05;102990.91;;;10.93;96.37
43757;BME280;73222;41.866;12.462;2024-01-30T07:34:31;102993.34;;;12.03;91.44
43757;BME280;73222;41.866;12.462;2024-01-30T07:36:56;102991.09;;;12.38;86.10
43757;BME280;73222;41.866;12.462;2024-01-30T07:39:22;102990.38;;;12.68;82.32
43757;BME280;73222;41.866;12.462;2024-01-30T07:41:47;102990.47;;;12.45;81.19
43757;BME280;73222;41.866;12.462;2024-01-30T07:44:13;103002.94;;;12.56;77.53
43757;BME280;73222;41.866;12.462;2024-01-30T07:46:38;103002.25;;;13.15;72.64
43757;BME280;73222;41.866;12.462;2024-01-30T07:49:06;103003.75;;;13.07;71.12
43757;BME280;73222;41.866;12.462;2024-01-30T07:51:31;102998.72;;;13.42;72.38
43757;BME280;73222;41.866;12.462;2024-01-30T07:53:58;103003.03;;;13.69;64.59
43757;BME280;73222;41.866;12.462;2024-01-30T07:56:23;103004.16;;;13.48;61.92
43757;BME280;73222;41.866;12.462;2024-01-30T07:58:49;103010.78;;;13.98;59.08
43757;BME280;73222;41.866;12.462;2024-01-30T08:01:15;103007.63;;;14.42;57.57
43757;BME280;73222;41.866;12.462;2024-01-30T08:03:41;103011.25;;;14.49;55.60
43757;BME280;73222;41.866;12.462;2024-01-30T08:06:07;103007.88;;;14.18;55.33
43757;BME280;73222;41.866;12.462;2024-01-30T08:08:33;103014.13;;;14.58;51.82
43757;BME280;73222;41.866;12.462;2024-01-30T08:10:58;103006.09;;;15.21;50.78
43757;BME280;73222;41.866;12.462;2024-01-30T08:13:24;103014.41;;;15.44;48.52
43757;BME280;73222;41.866;12.462;2024-01-30T08:15:49;103015.78;;;15.68;46.87
43757;BME280;73222;41.866;12.462;2024-01-30T08:18:15;103009.91;;;16.21;43.12
43757;BME280;73222;41.866;12.462;2024-01-30T08:20:40;103011.78;;;16.29;43.41
43757;BME280;73222;41.866;12.462;2024-01-30T08:23:06;103008.50;;;15.93;43.73
43757;BME280;73222;41.866;12.462;2024-01-30T08:25:31;103015.16;;;16.74;42.24
43757;BME280;73222;41.866;12.462;2024-01-30T08:27:57;103022.47;;;16.94;40.09
43757;BME280;73222;41.866;12.462;2024-01-30T08:30:22;103024.88;;;17.38;39.49
43757;BME280;73222;41.866;12.462;2024-01-30T08:32:48;103026.28;;;17.14;39.92
43757;BME280;73222;41.866;12.462;2024-01-30T08:35:14;103021.41;;;17.38;38.20
43757;BME280;73222;41.866;12.462;2024-01-30T08:37:41;103020.91;;;18.44;37.28
43757;BME280;73222;41.866;12.462;2024-01-30T08:40:08;103034.41;;;18.03;38.23
43757;BME280;73222;41.866;12.462;2024-01-30T08:42:34;103024.66;;;18.77;37.77
43757;BME280;73222;41.866;12.462;2024-01-30T08:44:59;103030.81;;;18.83;34.98
43757;BME280;73222;41.866;12.462;2024-01-30T08:47:25;103022.75;;;18.58;35.78
43757;BME280;73222;41.866;12.462;2024-01-30T08:49:51;103030.06;;;18.98;34.67
43757;BME280;73222;41.866;12.462;2024-01-30T08:52:16;103029.03;;;18.77;35.00
43757;BME280;73222;41.866;12.462;2024-01-30T08:54:42;103026.06;;;19.59;34.85
43757;BME280;73222;41.866;12.462;2024-01-30T08:57:08;103026.94;;;19.62;33.93
43757;BME280;73222;41.866;12.462;2024-01-30T08:59:33;103024.13;;;19.27;34.62
43757;BME280;73222;41.866;12.462;2024-01-30T09:01:58;103022.72;;;19.96;33.26
43757;BME280;73222;41.866;12.462;2024-01-30T09:04:24;103029.81;;;20.68;32.94
43757;BME280;73222;41.866;12.462;2024-01-30T09:06:50;103028.88;;;19.98;32.64
43757;BME280;73222;41.866;12.462;2024-01-30T09:09:16;103036.81;;;20.35;32.28
43757;BME280;73222;41.866;12.462;2024-01-30T09:11:42;103031.53;;;20.13;32.87
43757;BME280;73222;41.866;12.462;2024-01-30T09:14:08;103024.56;;;20.62;32.19
43757;BME280;73222;41.866;12.462;2024-01-30T09:16:34;103036.78;;;21.32;31.45
43757;BME280;73222;41.866;12.462;2024-01-30T09:19:00;103029.81;;;20.40;31.51
43757;BME280;73222;41.866;12.462;2024-01-30T09:21:26;103033.38;;;20.86;31.23
43757;BME280;73222;41.866;12.462;2024-01-30T09:23:54;103037.56;;;21.59;29.90
43757;BME280;73222;41.866;12.462;2024-01-30T09:26:20;103037.63;;;21.43;31.07
43757;BME280;73222;41.866;12.462;2024-01-30T09:28:45;103040.97;;;21.92;30.29
43757;BME280;73222;41.866;12.462;2024-01-30T09:31:11;103041.78;;;22.03;30.03
43757;BME280;73222;41.866;12.462;2024-01-30T09:33:38;103046.28;;;21.79;29.36
43757;BME280;73222;41.866;12.462;2024-01-30T09:36:05;103052.38;;;21.94;29.98
43757;BME280;73222;41.866;12.462;2024-01-30T09:38:30;103058.38;;;22.21;29.01
43757;BME280;73222;41.866;12.462;2024-01-30T09:40:56;103051.06;;;22.60;28.72
43757;BME280;73222;41.866;12.462;2024-01-30T09:43:23;103054.28;;;22.97;28.34
43757;BME280;73222;41.866;12.462;2024-01-30T09:45:53;103053.47;;;23.71;27.98
43757;BME280;73222;41.866;12.462;2024-01-30T09:48:19;103053.78;;;23.46;27.70
43757;BME280;73222;41.866;12.462;2024-01-30T09:50:45;103057.94;;;23.68;28.16
43757;BME280;73222;41.866;12.462;2024-01-30T09:53:11;103056.03;;;22.98;27.75
43757;BME280;73222;41.866;12.462;2024-01-30T09:55:38;103056.22;;;24.29;26.97
43757;BME280;73222;41.866;12.462;2024-01-30T09:58:05;103056.59;;;23.31;27.29
43757;BME280;73222;41.866;12.462;2024-01-30T10:00:30;103056.06;;;24.94;25.86
43757;BME280;73222;41.866;12.462;2024-01-30T10:02:56;103054.31;;;24.93;25.80
43757;BME280;73222;41.866;12.462;2024-01-30T10:05:26;103050.19;;;26.46;25.10
43757;BME280;73222;41.866;12.462;2024-01-30T10:07:53;103049.56;;;24.60;26.05
43757;BME280;73222;41.866;12.462;2024-01-30T10:10:22;103057.19;;;24.77;26.48
43757;BME280;73222;41.866;12.462;2024-01-30T10:12:48;103054.47;;;24.83;25.77
43757;BME280;73222;41.866;12.462;2024-01-30T10:15:14;103043.66;;;25.42;25.27
43757;BME280;73222;41.866;12.462;2024-01-30T10:17:39;103046.16;;;25.92;25.16
43757;BME280;73222;41.866;12.462;2024-01-30T10:20:05;103044.88;;;26.83;25.04
43757;BME280;73222;41.866;12.462;2024-01-30T10:22:31;103047.00;;;26.32;25.26
43757;BME280;73222;41.866;12.462;2024-01-30T10:24:56;103038.22;;;26.30;25.70
43757;BME280;73222;41.866;12.462;2024-01-30T10:27:28;103037.38;;;27.31;25.04
43757;BME280;73222;41.866;12.462;2024-01-30T10:29:55;103028.81;;;26.53;25.11
43757;BME280;73222;41.866;12.462;2024-01-30T10:32:21;103035.16;;;25.26;26.53
43757;BME280;73222;41.866;12.462;2024-01-30T10:34:48;103031.06;;;26.32;25.72
43757;BME280;73222;41.866;12.462;2024-01-30T10:37:15;103024.97;;;26.28;25.85
43757;BME280;73222;41.866;12.462;2024-01-30T10:39:43;103029.44;;;26.28;26.37
43757;BME280;73222;41.866;12.462;2024-01-30T10:42:13;103034.25;;;27.16;26.13
43757;BME280;73222;41.866;12.462;2024-01-30T10:47:21;103026.69;;;27.64;25.81
43757;BME280;73222;41.866;12.462;2024-01-30T10:49:51;103028.81;;;26.15;26.62
43757;BME280;73222;41.866;12.462;2024-01-30T10:52:17;103027.19;;;26.09;27.26
43757;BME280;73222;41.866;12.462;2024-01-30T10:54:44;103018.53;;;26.01;26.67
43757;BME280;73222;41.866;12.462;2024-01-30T10:57:11;103017.22;;;26.57;27.03
43757;BME280;73222;41.866;12.462;2024-01-30T10:59:37;103005.66;;;26.58;26.42
43757;BME280;73222;41.866;12.462;2024-01-30T11:02:04;103001.84;;;26.33;26.49
43757;BME280;73222;41.866;12.462;2024-01-30T11:04:41;102996.81;;;26.92;27.28
43757;BME280;73222;41.866;12.462;2024-01-30T11:07:16;103001.66;;;27.69;26.17
43757;BME280;73222;41.866;12.462;2024-01-30T11:09:52;103006.63;;;26.90;26.35
43757;BME280;73222;41.866;12.462;2024-01-30T11:12:22;102997.06;;;27.14;27.01
43757;BME280;73222;41.866;12.462;2024-01-30T11:14:48;102992.34;;;28.11;26.24
43757;BME280;73222;41.866;12.462;2024-01-30T11:17:14;102992.78;;;29.26;24.63
43757;BME280;73222;41.866;12.462;2024-01-30T11:19:41;102988.16;;;29.78;25.03
43757;BME280;73222;41.866;12.462;2024-01-30T11:22:07;102984.13;;;29.43;24.48
43757;BME280;73222;41.866;12.462;2024-01-30T11:24:39;102981.53;;;29.42;24.43
43757;BME280;73222;41.866;12.462;2024-01-30T11:27:08;102987.13;;;29.36;25.11
43757;BME280;73222;41.866;12.462;2024-01-30T11:29:34;102975.00;;;29.51;24.60
43757;BME280;73222;41.866;12.462;2024-01-30T11:32:00;102976.25;;;30.50;24.13
43757;BME280;73222;41.866;12.462;2024-01-30T11:34:26;102969.44;;;30.64;23.92
43757;BME280;73222;41.866;12.462;2024-01-30T11:36:55;102962.63;;;30.15;23.63
43757;BME280;73222;41.866;12.462;2024-01-30T11:39:25;102964.00;;;29.12;25.41
43757;BME280;73222;41.866;12.462;2024-01-30T11:41:51;102952.81;;;29.93;25.21
43757;BME280;73222;41.866;12.462;2024-01-30T11:44:19;102953.06;;;30.30;25.08
43757;BME280;73222;41.866;12.462;2024-01-30T11:46:45;102947.91;;;30.88;24.87
43757;BME280;73222;41.866;12.462;2024-01-30T11:49:11;102944.06;;;30.93;25.52
43757;BME280;73222;41.866;12.462;2024-01-30T11:51:37;102945.88;;;30.93;25.73
43757;BME280;73222;41.866;12.462;2024-01-30T11:54:02;102940.81;;;30.26;26.24
43757;BME280;73222;41.866;12.462;2024-01-30T11:56:28;102939.22;;;31.21;25.36
43757;BME280;73222;41.866;12.462;2024-01-30T11:58:53;102946.47;;;30.60;25.59
43757;BME280;73222;41.866;12.462;2024-01-30T12:01:20;102938.19;;;30.24;25.89
43757;BME280;73222;41.866;12.462;2024-01-30T12:03:51;102937.03;;;30.91;25.97
43757;BME280;73222;41.866;12.462;2024-01-30T12:06:17;102938.91;;;31.65;25.03
43757;BME280;73222;41.866;12.462;2024-01-30T12:08:42;102933.84;;;31.59;24.92
43757;BME280;73222;41.866;12.462;2024-01-30T12:11:08;102930.31;;;31.39;24.57
43757;BME280;73222;41.866;12.462;2024-01-30T12:13:33;102931.94;;;31.44;24.48
43757;BME280;73222;41.866;12.462;2024-01-30T12:16:00;102928.69;;;32.27;23.26
43757;BME280;73222;41.866;12.462;2024-01-30T12:18:26;102924.50;;;30.93;24.86
43757;BME280;73222;41.866;12.462;2024-01-30T12:21:00;102921.50;;;29.76;25.42
43757;BME280;73222;41.866;12.462;2024-01-30T12:23:29;102919.72;;;30.80;25.00
43757;BME280;73222;41.866;12.462;2024-01-30T12:25:54;102917.38;;;31.49;24.31
43757;BME280;73222;41.866;12.462;2024-01-30T12:28:20;102913.22;;;31.79;23.61
43757;BME280;73222;41.866;12.462;2024-01-30T12:30:46;102907.91;;;32.14;22.48
43757;BME280;73222;41.866;12.462;2024-01-30T12:33:20;102901.56;;;31.25;24.10
43757;BME280;73222;41.866;12.462;2024-01-30T12:35:47;102902.38;;;30.70;24.43
43757;BME280;73222;41.866;12.462;2024-01-30T12:38:13;102893.25;;;31.86;22.40